Menu Close Menu
Station Historical Data
Daily Summary for July 26, 2017 Units:  English    Metric   Both
« Previous Day
Next Day »
Daily Weekly Monthly Yearly Custom
  High: Low: Average:
Temperature: 93.4 °F 73.4 °F 81.3 °F
Dew Point: 74.0 °F 66.4 °F 69.6 °F
Humidity: 89% 44% 70%
Wind Speed: 4.6mph 0.0mph 3.2mph
Wind Gust: 5.0mph - -
Wind- - ESE
Pressure: 30.12 in 30.02 in -
Precipitation: 0.00 in    
Historical Graphs
 
 
Tabular Data for July 26, 2017
Time Temperature Dew Point Pressure Wind Wind Speed Wind Gust Humidity Rainfall Rate (Hourly) solar Conditions
00:04 74.9 °F 69.7 °F 30.08 in SW 3.5 mph   84% 0.00 in WeatherDisplay:10.37 W/m2 BKN
00:09 74.9 °F 69.7 °F 30.09 in SW 3.5 mph   84% 0.00 in WeatherDisplay:10.37 W/m2 BKN
00:14 74.9 °F 69.7 °F 30.09 in SW 3.5 mph   84% 0.00 in WeatherDisplay:10.37 W/m2 BKN
00:20 74.8 °F 69.6 °F 30.09 in Calm     84% 0.00 in WeatherDisplay:10.37 W/m2 CLR
00:25 74.7 °F 69.5 °F 30.08 in Calm     84% 0.00 in WeatherDisplay:10.37 W/m2 CLR
00:30 74.7 °F 69.5 °F 30.08 in Calm     84% 0.00 in WeatherDisplay:10.37 W/m2 CLR
00:35 74.7 °F 69.5 °F 30.08 in Calm     84% 0.00 in WeatherDisplay:10.37 W/m2 CLR
00:40 74.6 °F 69.4 °F 30.08 in Calm     84% 0.00 in WeatherDisplay:10.37 W/m2 CLR
00:41 74.6 °F 69.8 °F 30.08 in SW 3.5 mph   85% 0.00 in WeatherDisplay:10.37 W/m2 CLR
00:46 74.4 °F 69.6 °F 30.08 in SW 3.5 mph   85% 0.00 in WeatherDisplay:10.37 W/m2 CLR
00:51 74.3 °F 69.5 °F 30.08 in SW 3.5 mph   85% 0.00 in WeatherDisplay:10.37 W/m2 CLR
00:56 74.2 °F 69.4 °F 30.08 in SW 3.5 mph   85% 0.00 in WeatherDisplay:10.37 W/m2 CLR
01:01 74.1 °F 69.3 °F 30.08 in SW 3.5 mph   85% 0.00 in WeatherDisplay:10.37 W/m2 CLR
01:06 73.4 °F 68.6 °F 30.08 in SW 3.5 mph   85% 0.00 in WeatherDisplay:10.37 W/m2 CLR
01:11 73.4 °F 68.6 °F 30.07 in SW 3.5 mph   85% 0.00 in WeatherDisplay:10.37 W/m2 CLR
01:12 73.4 °F 68.6 °F 30.07 in SW 3.5 mph   85% 0.00 in WeatherDisplay:10.37 W/m2 CLR
01:17 73.4 °F 68.6 °F 30.08 in North 3.5 mph   85% 0.00 in WeatherDisplay:10.37 W/m2 CLR
01:22 73.4 °F 68.6 °F 30.08 in North 3.5 mph   85% 0.00 in WeatherDisplay:10.37 W/m2 CLR
01:27 73.4 °F 68.6 °F 30.08 in North 3.5 mph   85% 0.00 in WeatherDisplay:10.37 W/m2 CLR
01:32 73.4 °F 68.6 °F 30.07 in North 3.5 mph   85% 0.00 in WeatherDisplay:10.37 W/m2 CLR
01:37 73.4 °F 68.6 °F 30.07 in North 3.5 mph   85% 0.00 in WeatherDisplay:10.37 W/m2 CLR
01:42 73.4 °F 68.6 °F 30.07 in North 3.5 mph   85% 0.00 in WeatherDisplay:10.37 W/m2 CLR
01:47 73.4 °F 68.6 °F 30.07 in North 3.5 mph   85% 0.00 in WeatherDisplay:10.37 W/m2 CLR
01:52 73.4 °F 68.6 °F 30.07 in North 3.5 mph   85% 0.00 in WeatherDisplay:10.37 W/m2 CLR
01:57 73.4 °F 68.6 °F 30.07 in North 3.5 mph   85% 0.00 in WeatherDisplay:10.37 W/m2 CLR
02:02 73.4 °F 68.6 °F 30.07 in North 3.5 mph   85% 0.00 in WeatherDisplay:10.37 W/m2 CLR
02:07 73.4 °F 68.6 °F 30.07 in North 3.5 mph   85% 0.00 in WeatherDisplay:10.37 W/m2 CLR
02:12 73.4 °F 68.6 °F 30.08 in North 3.5 mph   85% 0.00 in WeatherDisplay:10.37 W/m2 CLR
02:15 73.4 °F 68.6 °F 30.08 in North 3.5 mph   85% 0.00 in WeatherDisplay:10.37 W/m2 CLR
02:20 73.4 °F 68.6 °F 30.08 in North 3.5 mph   85% 0.00 in WeatherDisplay:10.37 W/m2 CLR
02:25 73.4 °F 68.6 °F 30.08 in North 3.5 mph   85% 0.00 in WeatherDisplay:10.37 W/m2 CLR
02:30 73.4 °F 68.6 °F 30.07 in North 3.5 mph   85% 0.00 in WeatherDisplay:10.37 W/m2 CLR
02:35 73.4 °F 68.6 °F 30.07 in North 3.5 mph   85% 0.00 in WeatherDisplay:10.37 W/m2 CLR
02:40 73.4 °F 68.6 °F 30.07 in North 3.5 mph   85% 0.00 in WeatherDisplay:10.37 W/m2 CLR
02:45 73.4 °F 68.6 °F 30.07 in North 3.5 mph   85% 0.00 in WeatherDisplay:10.37 W/m2 CLR
02:50 73.4 °F 68.6 °F 30.06 in North 3.5 mph   85% 0.00 in WeatherDisplay:10.37 W/m2 CLR
02:55 73.4 °F 68.6 °F 30.07 in North 3.5 mph   85% 0.00 in WeatherDisplay:10.37 W/m2 CLR
03:01 73.4 °F 68.6 °F 30.07 in North 3.5 mph   85% 0.00 in WeatherDisplay:10.37 W/m2 CLR
03:06 73.4 °F 68.6 °F 30.07 in North 3.5 mph   85% 0.00 in WeatherDisplay:10.37 W/m2 CLR
03:11 73.4 °F 68.6 °F 30.07 in North 3.5 mph   85% 0.00 in WeatherDisplay:10.37 W/m2 CLR
03:16 73.4 °F 68.6 °F 30.07 in North 3.5 mph   85% 0.00 in WeatherDisplay:10.37 W/m2 CLR
03:21 73.4 °F 68.6 °F 30.08 in North 3.5 mph   85% 0.00 in WeatherDisplay:10.37 W/m2 CLR
03:26 73.4 °F 68.6 °F 30.08 in North 3.5 mph   85% 0.00 in WeatherDisplay:10.37 W/m2 CLR
03:31 73.4 °F 68.6 °F 30.08 in North 3.5 mph   85% 0.00 in WeatherDisplay:10.37 W/m2 CLR
03:36 73.4 °F 68.6 °F 30.08 in North 3.5 mph   85% 0.00 in WeatherDisplay:10.37 W/m2 CLR
03:41 73.4 °F 68.6 °F 30.08 in North 3.5 mph   85% 0.00 in WeatherDisplay:10.37 W/m2 CLR
03:46 73.4 °F 68.6 °F 30.08 in North 3.5 mph   85% 0.00 in WeatherDisplay:10.37 W/m2 CLR
03:52 73.4 °F 68.6 °F 30.08 in North 3.5 mph   85% 0.00 in WeatherDisplay:10.37 W/m2 CLR
03:57 73.4 °F 68.6 °F 30.08 in North 3.5 mph   85% 0.00 in WeatherDisplay:10.37 W/m2 CLR
04:02 73.4 °F 68.6 °F 30.08 in North 3.5 mph   85% 0.00 in WeatherDisplay:10.37 W/m2 CLR
04:07 73.4 °F 68.6 °F 30.08 in North 3.5 mph   85% 0.00 in WeatherDisplay:10.37 W/m2 CLR
04:12 73.4 °F 68.6 °F 30.08 in North 3.5 mph   85% 0.00 in WeatherDisplay:10.37 W/m2 CLR
04:17 73.4 °F 68.6 °F 30.08 in North 3.5 mph   85% 0.00 in WeatherDisplay:10.37 W/m2 CLR
04:22 73.4 °F 68.6 °F 30.08 in North 3.5 mph   85% 0.00 in WeatherDisplay:10.37 W/m2 CLR
04:27 73.4 °F 68.6 °F 30.08 in North 3.5 mph   85% 0.00 in WeatherDisplay:10.37 W/m2 CLR
04:32 73.4 °F 68.6 °F 30.08 in North 3.5 mph   85% 0.00 in WeatherDisplay:10.37 W/m2 CLR
04:35 73.4 °F 68.6 °F 30.07 in North 3.5 mph   85% 0.00 in WeatherDisplay:10.37 W/m2 CLR
04:40 73.4 °F 68.6 °F 30.08 in North 3.5 mph   85% 0.00 in WeatherDisplay:10.37 W/m2 CLR
04:45 73.4 °F 68.6 °F 30.08 in North 3.5 mph   85% 0.00 in WeatherDisplay:10.37 W/m2 CLR
04:50 73.4 °F 68.6 °F 30.08 in North 3.5 mph   85% 0.00 in WeatherDisplay:10.37 W/m2 CLR
04:55 73.4 °F 68.6 °F 30.08 in North 3.5 mph   85% 0.00 in WeatherDisplay:10.37 W/m2 CLR
05:00 73.4 °F 68.6 °F 30.08 in North 3.5 mph   85% 0.00 in WeatherDisplay:10.37 W/m2 CLR
05:05 73.4 °F 68.6 °F 30.08 in North 3.5 mph   85% 0.00 in WeatherDisplay:10.37 W/m2 CLR
05:11 73.4 °F 68.6 °F 30.08 in North 3.5 mph   85% 0.00 in WeatherDisplay:10.37 W/m2 CLR
05:16 73.4 °F 68.6 °F 30.08 in North 3.5 mph   85% 0.00 in WeatherDisplay:10.37 W/m2 CLR
05:21 73.4 °F 68.6 °F 30.08 in North 3.5 mph   85% 0.00 in WeatherDisplay:10.37 W/m2 CLR
05:26 73.4 °F 68.6 °F 30.08 in North 3.5 mph   85% 0.00 in WeatherDisplay:10.37 W/m2 CLR
05:31 73.4 °F 68.6 °F 30.08 in North 3.5 mph   85% 0.00 in WeatherDisplay:10.37 W/m2 CLR
05:36 73.4 °F 68.6 °F 30.08 in North 3.5 mph   85% 0.00 in WeatherDisplay:10.37 W/m2 CLR
05:41 73.4 °F 68.6 °F 30.08 in North 3.5 mph   85% 0.00 in WeatherDisplay:10.37 W/m2 CLR
05:46 73.4 °F 68.6 °F 30.08 in North 3.5 mph   85% 0.00 in WeatherDisplay:10.37 W/m2 CLR
05:51 73.4 °F 68.6 °F 30.08 in North 3.5 mph   85% 0.00 in WeatherDisplay:10.37 W/m2 CLR
05:56 73.4 °F 68.6 °F 30.09 in North 3.5 mph   85% 0.00 in WeatherDisplay:10.37 W/m2 CLR
06:01 73.4 °F 68.6 °F 30.08 in North 3.5 mph   85% 0.00 in WeatherDisplay:10.37 W/m2 CLR
06:06 73.4 °F 68.6 °F 30.08 in North 3.5 mph   85% 0.00 in WeatherDisplay:10.37 W/m2 CLR
06:11 73.4 °F 68.6 °F 30.09 in North 3.5 mph   85% 0.00 in WeatherDisplay:10.37 W/m2 CLR
06:16 73.4 °F 68.6 °F 30.09 in North 3.5 mph   85% 0.00 in WeatherDisplay:10.37 W/m2 CLR
06:21 73.4 °F 68.6 °F 30.09 in North 3.5 mph   85% 0.00 in WeatherDisplay:10.37 W/m2 CLR
06:26 73.4 °F 68.6 °F 30.09 in North 3.5 mph   85% 0.00 in WeatherDisplay:10.37 W/m2 CLR
06:31 73.4 °F 68.6 °F 30.09 in North 3.5 mph   85% 0.00 in WeatherDisplay:10.37 W/m2 CLR
06:36 73.4 °F 68.6 °F 30.09 in North 3.5 mph   85% 0.00 in WeatherDisplay:10.37 W/m2 CLR
06:41 73.4 °F 68.6 °F 30.09 in North 3.5 mph   85% 0.00 in WeatherDisplay:10.37 W/m2 CLR
06:46 73.4 °F 68.6 °F 30.10 in North 3.5 mph   85% 0.00 in WeatherDisplay:10.37 W/m2 CLR
06:51 73.4 °F 68.6 °F 30.10 in North 3.5 mph   85% 0.00 in WeatherDisplay:10.37 W/m2 CLR
06:56 73.4 °F 68.6 °F 30.10 in North 3.5 mph   85% 0.00 in WeatherDisplay:10.37 W/m2 CLR
07:01 73.4 °F 68.6 °F 30.10 in North 3.5 mph   85% 0.00 in WeatherDisplay:10.37 W/m2 CLR
07:06 73.4 °F 68.6 °F 30.10 in North 3.5 mph   85% 0.00 in WeatherDisplay:10.37 W/m2 CLR
07:12 73.4 °F 68.6 °F 30.10 in North 3.5 mph   85% 0.00 in WeatherDisplay:10.37 W/m2 CLR
07:17 73.4 °F 68.6 °F 30.10 in North 3.5 mph   85% 0.00 in WeatherDisplay:10.37 W/m2 CLR
07:22 73.4 °F 68.6 °F 30.10 in North 3.5 mph   85% 0.00 in WeatherDisplay:10.37 W/m2 BKN
07:27 73.4 °F 68.6 °F 30.11 in North 3.5 mph   85% 0.00 in WeatherDisplay:10.37 W/m2 BKN
07:32 73.4 °F 68.6 °F 30.11 in North 3.5 mph   85% 0.00 in WeatherDisplay:10.37 W/m2 BKN
07:37 73.4 °F 68.6 °F 30.11 in North 3.5 mph   85% 0.00 in WeatherDisplay:10.37 W/m2 BKN
07:42 73.4 °F 68.6 °F 30.11 in North 3.5 mph   85% 0.00 in WeatherDisplay:10.37 W/m2 BKN
07:47 73.4 °F 68.6 °F 30.11 in North 3.5 mph   85% 0.00 in WeatherDisplay:10.37 W/m2 BKN
07:52 73.4 °F 68.6 °F 30.11 in North 3.5 mph   85% 0.00 in WeatherDisplay:10.37 W/m2 BKN
07:57 73.4 °F 68.6 °F 30.11 in North 3.5 mph   85% 0.00 in WeatherDisplay:10.37 W/m2 BKN
08:02 73.4 °F 68.6 °F 30.11 in North 3.5 mph   85% 0.00 in WeatherDisplay:10.37 W/m2 BKN
08:07 73.4 °F 68.6 °F 30.11 in North 3.5 mph   85% 0.00 in WeatherDisplay:10.37 W/m2 BKN
08:12 73.4 °F 68.6 °F 30.11 in North 3.5 mph   85% 0.00 in WeatherDisplay:10.37 W/m2 BKN
08:17 73.4 °F 68.6 °F 30.11 in North 3.5 mph   85% 0.00 in WeatherDisplay:10.37 W/m2 BKN
08:22 73.4 °F 68.6 °F 30.11 in North 3.5 mph   85% 0.00 in WeatherDisplay:10.37 W/m2 SCT
08:27 73.4 °F 68.6 °F 30.11 in North 3.5 mph   85% 0.00 in WeatherDisplay:10.37 W/m2 SCT
08:32 73.4 °F 68.6 °F 30.11 in North 3.5 mph   85% 0.00 in WeatherDisplay:10.37 W/m2 SCT
08:37 73.4 °F 68.6 °F 30.11 in North 3.5 mph   85% 0.00 in WeatherDisplay:10.37 W/m2 SCT
08:42 75.2 °F 71.7 °F 30.11 in West 3.5 mph   89% 0.00 in WeatherDisplay:10.37 W/m2 SCT
08:47 75.5 °F 71.7 °F 30.12 in West 3.5 mph   88% 0.00 in WeatherDisplay:10.37 W/m2 SCT
08:52 75.9 °F 72.1 °F 30.12 in West 3.5 mph   88% 0.00 in WeatherDisplay:10.37 W/m2 SCT
08:58 76.2 °F 72.0 °F 30.12 in West 3.5 mph   87% 0.00 in WeatherDisplay:10.37 W/m2 SCT
09:03 76.6 °F 72.1 °F 30.12 in West 3.5 mph   86% 0.00 in WeatherDisplay:10.37 W/m2 SCT
09:08 77.0 °F 72.1 °F 30.12 in West 3.5 mph   85% 0.00 in WeatherDisplay:10.37 W/m2 SCT
09:13 77.4 °F 72.9 °F 30.12 in West 3.5 mph   86% 0.00 in WeatherDisplay:10.37 W/m2 SCT
09:18 77.8 °F 72.9 °F 30.12 in West 3.5 mph   85% 0.00 in WeatherDisplay:10.37 W/m2 SCT
09:23 78.1 °F 72.9 °F 30.12 in West 3.5 mph   84% 0.00 in WeatherDisplay:10.37 W/m2 SCT
09:28 78.5 °F 72.5 °F 30.12 in West 3.5 mph   82% 0.00 in WeatherDisplay:10.37 W/m2 SCT
09:33 78.9 °F 72.6 °F 30.12 in North 3.5 mph   81% 0.00 in WeatherDisplay:10.37 W/m2 SCT
09:38 79.2 °F 72.9 °F 30.12 in North 3.5 mph 3.5 mph 81% 0.00 in WeatherDisplay:10.37 W/m2 SCT
09:43 79.6 °F 73.3 °F 30.12 in North 3.5 mph 3.5 mph 81% 0.00 in WeatherDisplay:10.37 W/m2 SCT
09:48 80.0 °F 74.0 °F 30.12 in North 3.5 mph   82% 0.00 in WeatherDisplay:10.37 W/m2 SCT
09:53 80.4 °F 73.3 °F 30.11 in NNW 3.5 mph   79% 0.00 in WeatherDisplay:10.37 W/m2 SCT
09:58 80.7 °F 72.8 °F 30.11 in NNW 3.5 mph   77% 0.00 in WeatherDisplay:10.37 W/m2 SCT
10:03 81.0 °F 71.9 °F 30.11 in NNW 3.5 mph 3.5 mph 74% 0.00 in WeatherDisplay:10.37 W/m2 SCT
10:08 81.3 °F 71.8 °F 30.11 in NNE 3.5 mph   73% 0.00 in WeatherDisplay:10.37 W/m2 SCT
10:13 81.6 °F 72.1 °F 30.11 in NNE 3.5 mph   73% 0.00 in WeatherDisplay:10.37 W/m2 SCT
10:18 82.1 °F 71.3 °F 30.11 in East 3.5 mph 3.5 mph 70% 0.00 in WeatherDisplay:10.37 W/m2 SCT
10:24 82.7 °F 71.9 °F 30.11 in East 3.5 mph   70% 0.00 in WeatherDisplay:10.37 W/m2 FEW
10:29 83.7 °F 71.6 °F 30.11 in East 3.5 mph   67% 0.00 in WeatherDisplay:10.37 W/m2 FEW
10:34 84.0 °F 70.5 °F 30.11 in North 3.5 mph   64% 0.00 in WeatherDisplay:10.37 W/m2 FEW
10:39 84.5 °F 71.0 °F 30.11 in North 3.5 mph   64% 0.00 in WeatherDisplay:10.37 W/m2 FEW
10:44 85.2 °F 70.7 °F 30.11 in North 3.5 mph 3.5 mph 62% 0.00 in WeatherDisplay:10.37 W/m2 FEW
10:49 85.5 °F 69.5 °F 30.11 in NNW 3.5 mph 3.5 mph 59% 0.00 in WeatherDisplay:10.37 W/m2 FEW
10:54 85.6 °F 70.1 °F 30.11 in NW 3.5 mph   60% 0.00 in WeatherDisplay:10.37 W/m2 FEW
10:59 85.9 °F 69.9 °F 30.11 in NW 3.5 mph   59% 0.00 in WeatherDisplay:10.37 W/m2 FEW
11:04 86.5 °F 71.5 °F 30.11 in NW 3.5 mph   61% 0.00 in WeatherDisplay:10.37 W/m2 FEW
11:09 86.9 °F 69.3 °F 30.10 in NE 3.5 mph   56% 0.00 in WeatherDisplay:10.37 W/m2 FEW
11:14 87.1 °F 70.5 °F 30.10 in NNE 3.5 mph   58% 0.00 in WeatherDisplay:10.37 W/m2 FEW
11:19 87.4 °F 71.8 °F 30.10 in NNE 3.5 mph   60% 0.00 in WeatherDisplay:10.37 W/m2 FEW
11:24 87.5 °F 69.9 °F 30.10 in NNW 3.5 mph   56% 0.00 in WeatherDisplay:10.37 W/m2 FEW
11:29 87.3 °F 70.7 °F 30.10 in ENE 3.5 mph   58% 0.00 in WeatherDisplay:10.37 W/m2 FEW
11:35 87.3 °F 70.2 °F 30.10 in NW 3.5 mph   57% 0.00 in WeatherDisplay:10.37 W/m2 FEW
11:40 87.3 °F 69.7 °F 30.10 in Calm   1.0 mph 56% 0.00 in WeatherDisplay:10.37 W/m2 FEW
11:45 87.4 °F 69.3 °F 30.10 in NW 1.0 mph 1.0 mph 55% 0.00 in WeatherDisplay:10.37 W/m2 FEW
11:50 87.6 °F 70.0 °F 30.10 in Calm   1.0 mph 56% 0.00 in WeatherDisplay:10.37 W/m2 FEW
11:55 87.7 °F 70.6 °F 30.10 in Calm     57% 0.00 in WeatherDisplay:10.37 W/m2 FEW
12:00 87.7 °F 69.5 °F 30.10 in Calm   1.0 mph 55% 0.00 in WeatherDisplay:10.37 W/m2 FEW
12:05 87.9 °F 69.7 °F 30.10 in Calm   1.0 mph 55% 0.00 in WeatherDisplay:10.37 W/m2 FEW
12:10 88.2 °F 70.0 °F 30.10 in NNE 3.5 mph   55% 0.00 in WeatherDisplay:10.37 W/m2 FEW
12:15 88.2 °F 70.5 °F 30.10 in Calm   2.0 mph 56% 0.00 in WeatherDisplay:10.37 W/m2 FEW
12:20 88.2 °F 70.5 °F 30.10 in Calm   1.0 mph 56% 0.00 in WeatherDisplay:10.37 W/m2 FEW
12:25 88.3 °F 69.5 °F 30.10 in Calm   1.0 mph 54% 0.00 in WeatherDisplay:10.37 W/m2 FEW
12:30 88.6 °F 69.9 °F 30.10 in Calm   1.0 mph 54% 0.00 in WeatherDisplay:10.37 W/m2 FEW
12:35 89.0 °F 69.6 °F 30.10 in Calm   1.0 mph 53% 0.00 in WeatherDisplay:10.37 W/m2 FEW
12:40 89.2 °F 69.3 °F 30.10 in Calm   2.0 mph 52% 0.00 in WeatherDisplay:10.37 W/m2 FEW
12:45 89.1 °F 68.6 °F 30.10 in Calm   5.0 mph 51% 0.00 in WeatherDisplay:10.37 W/m2 FEW
12:50 89.5 °F 69.5 °F 30.11 in Calm   2.0 mph 52% 0.00 in WeatherDisplay:10.37 W/m2 FEW
12:55 90.2 °F 70.2 °F 30.10 in NW 1.0 mph 1.0 mph 52% 0.00 in WeatherDisplay:10.37 W/m2 FEW
13:00 90.7 °F 70.6 °F 30.10 in Calm   1.0 mph 52% 0.00 in WeatherDisplay:10.37 W/m2 FEW
13:05 91.1 °F 69.9 °F 30.10 in WNW 4.6 mph   50% 0.00 in WeatherDisplay:10.37 W/m2 FEW
13:11 91.9 °F 71.8 °F 30.10 in WNW 4.6 mph   52% 0.00 in WeatherDisplay:10.37 W/m2 FEW
13:16 92.2 °F 69.1 °F 30.10 in ENE 4.6 mph 4.6 mph 47% 0.00 in WeatherDisplay:10.37 W/m2 FEW
13:21 92.1 °F 69.0 °F 30.10 in NNE 4.6 mph   47% 0.00 in WeatherDisplay:10.37 W/m2 SCT
13:26 92.7 °F 69.5 °F 30.09 in NW 4.6 mph 4.6 mph 47% 0.00 in WeatherDisplay:10.37 W/m2 SCT
13:31 92.7 °F 68.2 °F 30.09 in ENE 4.6 mph 4.6 mph 45% 0.00 in WeatherDisplay:10.37 W/m2 SCT
13:36 92.2 °F 69.1 °F 30.09 in ENE 4.6 mph 4.6 mph 47% 0.00 in WeatherDisplay:10.37 W/m2 SCT
13:41 92.3 °F 69.8 °F 30.09 in ENE 4.6 mph   48% 0.00 in WeatherDisplay:10.37 W/m2 SCT
13:46 92.4 °F 68.0 °F 30.09 in NE 4.6 mph 4.6 mph 45% 0.00 in WeatherDisplay:10.37 W/m2 SCT
13:51 92.2 °F 70.3 °F 30.09 in NE 4.6 mph   49% 0.00 in WeatherDisplay:10.37 W/m2 SCT
13:53 92.5 °F 69.3 °F 30.09 in West 4.6 mph 4.6 mph 47% 0.00 in WeatherDisplay:10.37 W/m2 SCT
13:58 92.9 °F 69.7 °F 30.09 in NW 4.6 mph   47% 0.00 in WeatherDisplay:10.37 W/m2 SCT
14:03 93.2 °F 69.3 °F 30.09 in NW 4.6 mph   46% 0.00 in WeatherDisplay:10.37 W/m2 SCT
14:08 93.4 °F 68.2 °F 30.08 in East 4.6 mph 4.6 mph 44% 0.00 in WeatherDisplay:10.37 W/m2 SCT
14:13 92.7 °F 70.1 °F 30.08 in NW 4.6 mph   48% 0.00 in WeatherDisplay:10.37 W/m2 SCT
14:18 92.3 °F 68.5 °F 30.07 in WNW 4.6 mph 4.6 mph 46% 0.00 in WeatherDisplay:10.37 W/m2 SCT
14:23 91.8 °F 68.1 °F 30.07 in NE 4.6 mph 4.6 mph 46% 0.00 in WeatherDisplay:10.37 W/m2 SCT
14:28 91.1 °F 69.3 °F 30.07 in NE 4.6 mph 4.6 mph 49% 0.00 in WeatherDisplay:10.37 W/m2 SCT
14:33 91.3 °F 70.1 °F 30.07 in WNW 4.6 mph 4.6 mph 50% 0.00 in WeatherDisplay:10.37 W/m2 SCT
14:38 91.4 °F 68.3 °F 30.07 in WNW 4.6 mph 4.6 mph 47% 0.00 in WeatherDisplay:10.37 W/m2 SCT
14:43 91.2 °F 67.5 °F 30.07 in NNE 4.6 mph 4.6 mph 46% 0.00 in WeatherDisplay:10.37 W/m2 SCT
14:48 91.1 °F 69.3 °F 30.07 in North 4.6 mph   49% 0.00 in WeatherDisplay:10.37 W/m2 SCT
14:53 91.3 °F 69.5 °F 30.07 in NNE 4.6 mph   49% 0.00 in WeatherDisplay:10.37 W/m2 SCT
14:58 91.2 °F 68.8 °F 30.06 in NW 4.6 mph   48% 0.00 in WeatherDisplay:10.37 W/m2 SCT
15:03 91.2 °F 69.4 °F 30.06 in NW 4.6 mph   49% 0.00 in WeatherDisplay:10.37 W/m2 SCT
15:08 91.1 °F 68.7 °F 30.06 in NNW 4.6 mph   48% 0.00 in WeatherDisplay:10.37 W/m2 SCT
15:14 91.0 °F 68.6 °F 30.05 in NNW 4.6 mph   48% 0.00 in WeatherDisplay:10.37 W/m2 SCT
15:19 90.9 °F 66.6 °F 30.05 in ENE 4.6 mph 4.6 mph 45% 0.00 in WeatherDisplay:10.37 W/m2 SCT
15:24 90.7 °F 68.3 °F 30.05 in NW 4.6 mph 4.6 mph 48% 0.00 in WeatherDisplay:10.37 W/m2 SCT
15:29 90.8 °F 69.0 °F 30.05 in WSW 4.6 mph   49% 0.00 in WeatherDisplay:10.37 W/m2 SCT
15:34 90.8 °F 69.0 °F 30.05 in NNW 4.6 mph   49% 0.00 in WeatherDisplay:10.37 W/m2 SCT
15:39 90.8 °F 69.0 °F 30.05 in NNE 4.6 mph   49% 0.00 in WeatherDisplay:10.37 W/m2 SCT
15:44 90.8 °F 69.0 °F 30.05 in NNE 4.6 mph   49% 0.00 in WeatherDisplay:10.37 W/m2 SCT
15:49 90.7 °F 66.4 °F 30.05 in NNE 4.6 mph   45% 0.00 in WeatherDisplay:10.37 W/m2 SCT
15:54 90.8 °F 69.0 °F 30.05 in East 4.6 mph   49% 0.00 in WeatherDisplay:10.37 W/m2 SCT
15:59 90.7 °F 66.4 °F 30.05 in NNE 4.6 mph   45% 0.00 in WeatherDisplay:10.37 W/m2 SCT
16:04 90.6 °F 69.4 °F 30.05 in NE 4.6 mph   50% 0.00 in WeatherDisplay:10.37 W/m2 SCT
16:09 89.9 °F 68.2 °F 30.05 in NE 4.6 mph   49% 0.00 in WeatherDisplay:10.37 W/m2 SCT
16:14 89.9 °F 69.9 °F 30.05 in NE 4.6 mph   52% 0.00 in WeatherDisplay:10.37 W/m2 SCT
16:19 89.9 °F 68.2 °F 30.05 in NE 4.6 mph   49% 0.00 in WeatherDisplay:10.37 W/m2 SCT
16:24 90.0 °F 67.7 °F 30.05 in NE 4.6 mph 4.6 mph 48% 0.00 in WeatherDisplay:10.37 W/m2 SCT
16:29 90.2 °F 66.6 °F 30.04 in NNE 4.6 mph   46% 0.00 in WeatherDisplay:10.37 W/m2 SCT
16:34 90.5 °F 67.5 °F 30.04 in NNE 4.6 mph   47% 0.00 in WeatherDisplay:10.37 W/m2 SCT
16:39 90.7 °F 67.7 °F 30.04 in NNE 4.6 mph 4.6 mph 47% 0.00 in WeatherDisplay:10.37 W/m2 SCT
16:44 90.6 °F 67.6 °F 30.03 in SW 4.6 mph   47% 0.00 in WeatherDisplay:10.37 W/m2 SCT
16:50 90.7 °F 68.3 °F 30.03 in SW 4.6 mph   48% 0.00 in WeatherDisplay:10.37 W/m2 SCT
16:55 90.9 °F 69.1 °F 30.03 in Calm     49% 0.00 in WeatherDisplay:10.37 W/m2 SCT
17:00 90.9 °F 69.7 °F 30.03 in NW 1.0 mph 2.0 mph 50% 0.00 in WeatherDisplay:10.37 W/m2 SCT
17:05 90.9 °F 70.3 °F 30.03 in East 4.6 mph 4.6 mph 51% 0.00 in WeatherDisplay:10.37 W/m2 SCT
17:11 90.8 °F 69.0 °F 30.02 in East 4.6 mph 4.6 mph 49% 0.00 in WeatherDisplay:10.37 W/m2 SCT
17:15 91.1 °F 68.7 °F 30.02 in East 4.6 mph   48% 0.00 in WeatherDisplay:10.37 W/m2 SCT
17:21 91.1 °F 69.3 °F 30.02 in NE 4.6 mph 4.6 mph 49% 0.00 in WeatherDisplay:10.37 W/m2 SCT
17:26 91.4 °F 69.6 °F 30.02 in NNE 4.6 mph 4.6 mph 49% 0.00 in WeatherDisplay:10.37 W/m2 SCT
17:31 91.0 °F 69.8 °F 30.02 in NW 4.6 mph   50% 0.00 in WeatherDisplay:10.37 W/m2 SCT
17:36 90.7 °F 68.9 °F 30.02 in NE 4.6 mph 4.6 mph 49% 0.00 in WeatherDisplay:10.37 W/m2 SCT
17:39 90.4 °F 70.4 °F 30.02 in East 4.6 mph 4.6 mph 52% 0.00 in WeatherDisplay:10.37 W/m2 SCT
17:44 90.2 °F 68.5 °F 30.02 in ENE 4.6 mph   49% 0.00 in WeatherDisplay:10.37 W/m2 SCT
17:49 90.1 °F 69.0 °F 30.03 in North 4.6 mph   50% 0.00 in WeatherDisplay:10.37 W/m2 SCT
17:54 90.0 °F 68.3 °F 30.03 in NNE 4.6 mph   49% 0.00 in WeatherDisplay:10.37 W/m2 SCT
17:59 89.9 °F 68.2 °F 30.03 in ENE 4.6 mph   49% 0.00 in WeatherDisplay:10.37 W/m2 SCT
18:04 89.7 °F 69.7 °F 30.03 in ENE 4.6 mph   52% 0.00 in WeatherDisplay:10.37 W/m2 SCT
18:09 89.6 °F 69.1 °F 30.03 in ENE 4.6 mph   51% 0.00 in WeatherDisplay:10.37 W/m2 SCT
18:14 89.9 °F 69.9 °F 30.03 in NNE 4.6 mph   52% 0.00 in WeatherDisplay:10.37 W/m2 SCT
18:19 89.8 °F 70.4 °F 30.03 in NE 4.6 mph   53% 0.00 in WeatherDisplay:10.37 W/m2 SCT
18:24 89.8 °F 69.8 °F 30.03 in NE 4.6 mph   52% 0.00 in WeatherDisplay:10.37 W/m2 SCT
18:29 89.5 °F 70.7 °F 30.03 in NE 4.6 mph   54% 0.00 in WeatherDisplay:10.37 W/m2 SCT
18:35 88.9 °F 71.7 °F 30.03 in NE 4.6 mph   57% 0.00 in WeatherDisplay:10.37 W/m2 SCT
18:40 88.5 °F 69.7 °F 30.03 in Calm   1.0 mph 54% 0.00 in WeatherDisplay:10.37 W/m2 SCT
18:45 88.2 °F 68.9 °F 30.04 in NE 4.6 mph   53% 0.00 in WeatherDisplay:10.37 W/m2 SCT
18:50 88.2 °F 70.0 °F 30.04 in Calm   1.0 mph 55% 0.00 in WeatherDisplay:10.37 W/m2 SCT
18:55 87.7 °F 70.1 °F 30.04 in Calm     56% 0.00 in WeatherDisplay:10.37 W/m2 SCT
19:00 87.5 °F 69.9 °F 30.04 in NE 4.6 mph   56% 0.00 in WeatherDisplay:10.37 W/m2 SCT
19:05 87.4 °F 70.3 °F 30.04 in Calm     57% 0.00 in WeatherDisplay:10.37 W/m2 SCT
19:10 87.3 °F 70.2 °F 30.04 in Calm     57% 0.00 in WeatherDisplay:10.37 W/m2 SCT
19:15 87.1 °F 70.6 °F 30.03 in Calm     58% 0.00 in WeatherDisplay:10.37 W/m2 SCT
19:20 86.9 °F 71.3 °F 30.03 in Calm   1.0 mph 60% 0.00 in WeatherDisplay:10.37 W/m2 SCT
19:25 86.7 °F 71.2 °F 30.03 in Calm     60% 0.00 in WeatherDisplay:10.37 W/m2 SCT
19:30 86.7 °F 71.6 °F 30.03 in Calm     61% 0.00 in WeatherDisplay:10.37 W/m2 SCT
19:35 86.8 °F 69.7 °F 30.03 in Calm     57% 0.00 in WeatherDisplay:10.37 W/m2 SCT
19:40 87.0 °F 69.4 °F 30.03 in Calm     56% 0.00 in WeatherDisplay:10.37 W/m2 SCT
19:45 87.1 °F 69.5 °F 30.03 in Calm     56% 0.00 in WeatherDisplay:10.37 W/m2 SCT
19:50 87.1 °F 69.5 °F 30.03 in Calm     56% 0.00 in WeatherDisplay:10.37 W/m2 SCT
19:55 86.9 °F 70.3 °F 30.03 in Calm     58% 0.00 in WeatherDisplay:10.37 W/m2 SCT
20:00 86.7 °F 69.6 °F 30.03 in Calm   2.0 mph 57% 0.00 in WeatherDisplay:10.37 W/m2 SCT
20:05 86.4 °F 70.9 °F 30.04 in Calm   3.0 mph 60% 0.00 in WeatherDisplay:10.37 W/m2 SCT
20:10 85.9 °F 70.9 °F 30.04 in WNW 1.0 mph 2.0 mph 61% 0.00 in WeatherDisplay:10.37 W/m2 SCT
20:15 85.3 °F 71.3 °F 30.03 in NW 4.6 mph   63% 0.00 in WeatherDisplay:10.37 W/m2 SCT
20:20 84.9 °F 71.3 °F 30.03 in Calm   1.0 mph 64% 0.00 in WeatherDisplay:10.37 W/m2 BKN
20:25 84.5 °F 71.4 °F 30.03 in Calm     65% 0.00 in WeatherDisplay:10.37 W/m2 BKN
20:30 84.1 °F 71.5 °F 30.04 in Calm     66% 0.00 in WeatherDisplay:10.37 W/m2 BKN
20:35 83.6 °F 71.0 °F 30.04 in Calm     66% 0.00 in WeatherDisplay:10.37 W/m2 BKN
20:40 83.2 °F 70.7 °F 30.04 in Calm     66% 0.00 in WeatherDisplay:10.37 W/m2 BKN
20:45 82.9 °F 70.4 °F 30.04 in NW 4.6 mph   66% 0.00 in WeatherDisplay:10.37 W/m2 BKN
20:50 82.7 °F 70.2 °F 30.03 in Calm     66% 0.00 in WeatherDisplay:10.37 W/m2 BKN
20:55 82.4 °F 70.3 °F 30.04 in Calm     67% 0.00 in WeatherDisplay:10.37 W/m2 BKN
21:00 82.1 °F 70.5 °F 30.04 in Calm     68% 0.00 in WeatherDisplay:10.37 W/m2 BKN
21:05 82.0 °F 70.4 °F 30.04 in Calm     68% 0.00 in WeatherDisplay:10.37 W/m2 BKN
21:10 81.8 °F 70.2 °F 30.03 in Calm     68% 0.00 in WeatherDisplay:10.37 W/m2 BKN
21:15 81.6 °F 70.4 °F 30.03 in Calm     69% 0.00 in WeatherDisplay:10.37 W/m2 BKN
21:20 81.2 °F 70.5 °F 30.03 in Calm     70% 0.00 in WeatherDisplay:10.37 W/m2 BKN
21:25 80.9 °F 70.6 °F 30.03 in Calm     71% 0.00 in WeatherDisplay:10.37 W/m2 BKN
21:30 80.6 °F 70.3 °F 30.03 in Calm     71% 0.00 in WeatherDisplay:10.37 W/m2 BKN
21:35 80.2 °F 70.4 °F 30.03 in Calm     72% 0.00 in WeatherDisplay:10.37 W/m2 BKN
21:40 79.9 °F 70.5 °F 30.03 in Calm     73% 0.00 in WeatherDisplay:10.37 W/m2 BKN
21:45 79.6 °F 70.6 °F 30.04 in NW 4.6 mph   74% 0.00 in WeatherDisplay:10.37 W/m2 BKN
21:50 79.4 °F 70.4 °F 30.04 in NW 4.6 mph   74% 0.00 in WeatherDisplay:10.37 W/m2 BKN
21:55 79.2 °F 70.2 °F 30.05 in NW 4.6 mph   74% 0.00 in WeatherDisplay:10.37 W/m2 BKN
22:00 79.0 °F 70.4 °F 30.05 in NW 4.6 mph   75% 0.00 in WeatherDisplay:10.37 W/m2 BKN
22:05 78.8 °F 70.6 °F 30.05 in NW 4.6 mph   76% 0.00 in WeatherDisplay:10.37 W/m2 BKN
22:10 78.7 °F 70.5 °F 30.06 in NW 4.6 mph   76% 0.00 in WeatherDisplay:10.37 W/m2 BKN
22:15 78.5 °F 70.7 °F 30.06 in NW 4.6 mph   77% 0.00 in WeatherDisplay:10.37 W/m2 BKN
22:20 78.3 °F 70.5 °F 30.06 in NW 4.6 mph   77% 0.00 in WeatherDisplay:10.37 W/m2 SCT
22:25 78.2 °F 70.4 °F 30.06 in NW 4.6 mph   77% 0.00 in WeatherDisplay:10.37 W/m2 SCT
22:30 78.1 °F 70.3 °F 30.07 in NW 4.6 mph   77% 0.00 in WeatherDisplay:10.37 W/m2 SCT
22:35 78.0 °F 70.6 °F 30.07 in NW 4.6 mph   78% 0.00 in WeatherDisplay:10.37 W/m2 SCT
22:41 77.9 °F 70.5 °F 30.07 in NW 4.6 mph   78% 0.00 in WeatherDisplay:10.37 W/m2 SCT
22:46 77.7 °F 70.3 °F 30.07 in NW 4.6 mph   78% 0.00 in WeatherDisplay:10.37 W/m2 SCT
22:51 77.7 °F 70.3 °F 30.07 in NW 4.6 mph   78% 0.00 in WeatherDisplay:10.37 W/m2 SCT
22:56 77.5 °F 70.5 °F 30.07 in NW 4.6 mph   79% 0.00 in WeatherDisplay:10.37 W/m2 SCT
23:01 77.4 °F 70.4 °F 30.07 in NW 4.6 mph   79% 0.00 in WeatherDisplay:10.37 W/m2 SCT
23:06 77.3 °F 70.3 °F 30.07 in NW 4.6 mph   79% 0.00 in WeatherDisplay:10.37 W/m2 SCT
23:11 77.1 °F 70.5 °F 30.08 in NW 4.6 mph   80% 0.00 in WeatherDisplay:10.37 W/m2 SCT
23:16 77.0 °F 70.4 °F 30.08 in NW 4.6 mph   80% 0.00 in WeatherDisplay:10.37 W/m2 SCT
23:21 76.9 °F 70.3 °F 30.08 in NW 4.6 mph   80% 0.00 in WeatherDisplay:10.37 W/m2 SCT
23:26 76.7 °F 70.1 °F 30.08 in NW 4.6 mph   80% 0.00 in WeatherDisplay:10.37 W/m2 SCT
23:31 76.6 °F 70.3 °F 30.08 in NW 4.6 mph   81% 0.00 in WeatherDisplay:10.37 W/m2 SCT
23:36 76.6 °F 70.3 °F 30.08 in NW 4.6 mph   81% 0.00 in WeatherDisplay:10.37 W/m2 SCT
23:41 76.4 °F 70.1 °F 30.08 in NW 4.6 mph   81% 0.00 in WeatherDisplay:10.37 W/m2 SCT
23:46 76.4 °F 70.1 °F 30.09 in NW 4.6 mph   81% 0.00 in WeatherDisplay:10.37 W/m2 SCT
23:51 76.3 °F 70.4 °F 30.09 in NW 4.6 mph   82% 0.00 in WeatherDisplay:10.37 W/m2 SCT
23:57 76.3 °F 70.4 °F 30.09 in NW 4.6 mph   82% 0.00 in WeatherDisplay:10.37 W/m2 SCT
Piedmont Bend
Compliments of Weather Underground - 4 mb